SANTA FE DAM CA US current weather conditions

sailwx.info

Wind from 226 at 2 knots gusting 9

Air temperature 17.8° C
Dewpoint 9.7° C

Last reported at 2014-Nov-23 01:57 UTC.
Time now 2014-Nov-23 03:44 UTC

Location: N 34°08' W 117°57'.
View on Google Maps.

See reports from other nearby stations

  
Tides and Currents Weather Stations Pressure Air Temp Water Temp Dewpoint Dewpoint Depression Visibility Wind Speed Wind Dir Waves Ship Positions
date/time (UTC)wind fromknots sea level pressurealtimeterstation pressurevisibilityair tempwater tempwave heightnotes
2014-Nov-23 01:57 226 2 gusting 9 17.8
2014-Nov-23 00:57 239 5 gusting 11 20.0
2014-Nov-22 23:57 219 6 gusting 11 22.8
2014-Nov-22 22:57 216 4 gusting 12 25.0
2014-Nov-22 21:57 204 4 gusting 11 24.4
2014-Nov-22 20:57 257 5 gusting 10 23.3
2014-Nov-22 19:57 201 4 gusting 8 23.9
2014-Nov-22 18:57 146 3 gusting 6 22.8
2014-Nov-22 17:57 154 1 gusting 4 21.1
2014-Nov-22 16:57 143 1 gusting 8 18.9
2014-Nov-22 15:57 062 3 gusting 11 16.1
2014-Nov-22 14:57 048 4 gusting 10 13.9
2014-Nov-22 13:57 039 3 gusting 10 12.8
2014-Nov-22 12:57 053 4 gusting 12 13.3
2014-Nov-22 11:57 048 4 gusting 12 13.9
2014-Nov-22 10:57 034 3 gusting 12 13.3
2014-Nov-22 09:57 034 6 gusting 13 14.4
2014-Nov-22 08:57 032 5 gusting 13 15.0
2014-Nov-22 07:57 032 6 gusting 13 15.6
2014-Nov-22 06:57 053 4 gusting 13 15.0
2014-Nov-22 05:57 032 5 gusting 13 16.1
2014-Nov-22 04:57 032 3 gusting 9 15.6
2014-Nov-22 03:57 043 3 gusting 9 16.7
2014-Nov-22 02:57 035 1 gusting 5 15.6
2014-Nov-22 01:57 279 3 gusting 6 16.7
2014-Nov-22 00:57 256 4 gusting 10 19.4
2014-Nov-21 23:57 239 6 gusting 12 22.2
2014-Nov-21 22:57 248 3 gusting 9 24.4
2014-Nov-21 21:57 239 3 gusting 9 23.3
2014-Nov-21 20:57 158 3 gusting 12 23.9
2014-Nov-21 19:57 021 2 gusting 8 23.3
2014-Nov-21 18:57 104 4 gusting 9 21.7
2014-Nov-21 17:57 137 3 gusting 11 21.1
2014-Nov-21 16:57 276 2 gusting 9 19.4
2014-Nov-21 15:57 031 3 gusting 7 14.4
2014-Nov-21 14:57 130 2 gusting 6 12.8
2014-Nov-21 13:57 086 1 gusting 4 13.3
2014-Nov-21 12:57 080 0 gusting 3 13.9
2014-Nov-21 11:57 098 2 gusting 3 13.9
2014-Nov-21 10:57 168 2 gusting 6 15.0
2014-Nov-21 09:57 228 2 gusting 4 16.1
2014-Nov-21 08:57 344 0 gusting 3 16.1
2014-Nov-21 07:57 208 0 gusting 8 16.1
2014-Nov-21 06:57 072 3 gusting 9 16.7
2014-Nov-21 05:57 235 0 gusting 3 15.6
2014-Nov-21 04:57 163 1 gusting 4 16.1
2014-Nov-21 03:57 202 1 gusting 3 17.2